sensor_id;sensor_type;location;lat;lon;timestamp;pressure;altitude;pressure_sealevel;temperature;humidity
45327;BME280;31062;49.678;24.560;2023-02-28T00:02:02;99431.31;;;-1.87;74.45
45327;BME280;31062;49.678;24.560;2023-02-28T00:04:47;99404.75;;;-2.16;74.16
45327;BME280;31062;49.678;24.560;2023-02-28T00:07:38;99461.09;;;-1.92;74.68
45327;BME280;31062;49.678;24.560;2023-02-28T00:10:26;99437.53;;;-1.95;74.62
45327;BME280;31062;49.678;24.560;2023-02-28T00:13:12;99421.09;;;-2.25;74.50
45327;BME280;31062;49.678;24.560;2023-02-28T00:16:11;99435.41;;;-1.91;74.32
45327;BME280;31062;49.678;24.560;2023-02-28T00:18:59;99436.91;;;-1.90;73.88
45327;BME280;31062;49.678;24.560;2023-02-28T00:21:44;99451.03;;;-1.77;74.07
45327;BME280;31062;49.678;24.560;2023-02-28T00:24:31;99445.59;;;-1.77;73.85
45327;BME280;31062;49.678;24.560;2023-02-28T00:27:16;99456.19;;;-1.79;73.54
45327;BME280;31062;49.678;24.560;2023-02-28T00:30:05;99484.47;;;-1.62;73.39
45327;BME280;31062;49.678;24.560;2023-02-28T00:32:52;99419.09;;;-1.91;72.55
45327;BME280;31062;49.678;24.560;2023-02-28T00:35:37;99456.13;;;-1.70;72.52
45327;BME280;31062;49.678;24.560;2023-02-28T00:38:23;99468.44;;;-1.60;72.81
45327;BME280;31062;49.678;24.560;2023-02-28T00:41:11;99250.38;;;-2.98;72.85
45327;BME280;31062;49.678;24.560;2023-02-28T00:43:57;99418.84;;;-1.79;72.72
45327;BME280;31062;49.678;24.560;2023-02-28T00:46:44;99465.13;;;-1.64;72.69
45327;BME280;31062;49.678;24.560;2023-02-28T00:49:30;99263.88;;;-2.79;72.33
45327;BME280;31062;49.678;24.560;2023-02-28T00:52:15;99465.81;;;-1.31;71.93
45327;BME280;31062;49.678;24.560;2023-02-28T00:55:01;99481.56;;;-1.35;72.10
45327;BME280;31062;49.678;24.560;2023-02-28T00:57:46;99251.81;;;-2.78;71.01
45327;BME280;31062;49.678;24.560;2023-02-28T01:00:32;99368.47;;;-2.03;71.74
45327;BME280;31062;49.678;24.560;2023-02-28T01:03:18;99491.53;;;-1.32;71.56
45327;BME280;31062;49.678;24.560;2023-02-28T01:06:05;99497.53;;;-1.28;71.20
45327;BME280;31062;49.678;24.560;2023-02-28T01:08:50;99467.91;;;-1.26;71.33
45327;BME280;31062;49.678;24.560;2023-02-28T01:11:35;99269.50;;;-2.59;71.20
45327;BME280;31062;49.678;24.560;2023-02-28T01:14:21;99472.41;;;-1.23;71.21
45327;BME280;31062;49.678;24.560;2023-02-28T01:17:07;99261.41;;;-2.68;70.97
45327;BME280;31062;49.678;24.560;2023-02-28T01:19:54;99306.47;;;-2.38;70.94
45327;BME280;31062;49.678;24.560;2023-02-28T01:22:43;99476.34;;;-1.24;71.30
45327;BME280;31062;49.678;24.560;2023-02-28T01:25:29;99473.34;;;-1.26;70.98
45327;BME280;31062;49.678;24.560;2023-02-28T01:28:14;99441.25;;;-1.60;70.90
45327;BME280;31062;49.678;24.560;2023-02-28T01:31:01;99271.16;;;-2.62;70.60
45327;BME280;31062;49.678;24.560;2023-02-28T01:33:47;99493.94;;;-1.34;70.72
45327;BME280;31062;49.678;24.560;2023-02-28T01:36:33;99479.66;;;-1.43;70.75
45327;BME280;31062;49.678;24.560;2023-02-28T01:39:19;99395.50;;;-1.85;70.91
45327;BME280;31062;49.678;24.560;2023-02-28T01:42:05;99464.47;;;-1.35;71.13
45327;BME280;31062;49.678;24.560;2023-02-28T01:48:07;99459.22;;;-1.39;70.35
45327;BME280;31062;49.678;24.560;2023-02-28T01:50:56;99374.47;;;-1.99;70.01
45327;BME280;31062;49.678;24.560;2023-02-28T01:53:52;99458.03;;;-1.61;70.47
45327;BME280;31062;49.678;24.560;2023-02-28T01:56:44;99254.28;;;-2.90;70.66
45327;BME280;31062;49.678;24.560;2023-02-28T02:00:03;99454.84;;;-1.60;70.83
45327;BME280;31062;49.678;24.560;2023-02-28T02:02:48;99445.59;;;-1.77;70.98
45327;BME280;31062;49.678;24.560;2023-02-28T02:05:37;99257.31;;;-2.97;71.42
45327;BME280;31062;49.678;24.560;2023-02-28T02:08:26;99444.06;;;-1.54;71.23
45327;BME280;31062;49.678;24.560;2023-02-28T02:11:14;99458.38;;;-1.45;70.59
45327;BME280;31062;49.678;24.560;2023-02-28T02:17:43;99311.66;;;-2.49;71.44
45327;BME280;31062;49.678;24.560;2023-02-28T02:30:50;99237.53;;;-3.21;71.42
45327;BME280;31062;49.678;24.560;2023-02-28T02:34:16;99430.06;;;-2.10;71.63
45327;BME280;31062;49.678;24.560;2023-02-28T02:40:27;99456.41;;;-2.25;72.49
45327;BME280;31062;49.678;24.560;2023-02-28T02:43:20;99448.28;;;-2.34;72.07
45327;BME280;31062;49.678;24.560;2023-02-28T02:46:16;99468.84;;;-2.42;72.65
45327;BME280;31062;49.678;24.560;2023-02-28T02:49:07;99471.25;;;-2.44;72.98
45327;BME280;31062;49.678;24.560;2023-02-28T02:52:03;99500.38;;;-2.44;72.14
45327;BME280;31062;49.678;24.560;2023-02-28T02:54:52;99478.63;;;-2.35;71.86
45327;BME280;31062;49.678;24.560;2023-02-28T02:58:02;99462.00;;;-2.28;72.94
45327;BME280;31062;49.678;24.560;2023-02-28T03:00:52;99468.59;;;-2.20;72.27
45327;BME280;31062;49.678;24.560;2023-02-28T03:03:39;99467.25;;;-2.16;72.39
45327;BME280;31062;49.678;24.560;2023-02-28T03:06:26;99434.09;;;-2.29;72.09
45327;BME280;31062;49.678;24.560;2023-02-28T03:09:12;99243.34;;;-3.46;71.77
45327;BME280;31062;49.678;24.560;2023-02-28T03:11:58;99460.78;;;-1.94;71.87
45327;BME280;31062;49.678;24.560;2023-02-28T03:15:36;99469.44;;;-2.05;70.93
45327;BME280;31062;49.678;24.560;2023-02-28T03:18:22;99427.25;;;-2.15;70.40
45327;BME280;31062;49.678;24.560;2023-02-28T03:21:22;99493.84;;;-1.96;71.04
45327;BME280;31062;49.678;24.560;2023-02-28T03:33:39;99471.28;;;-2.11;70.13
45327;BME280;31062;49.678;24.560;2023-02-28T03:36:37;99475.22;;;-2.12;70.16
45327;BME280;31062;49.678;24.560;2023-02-28T03:39:39;99484.41;;;-2.10;70.12
45327;BME280;31062;49.678;24.560;2023-02-28T03:42:33;99440.78;;;-2.39;69.93
45327;BME280;31062;49.678;24.560;2023-02-28T03:45:23;99385.88;;;-2.85;70.01
45327;BME280;31062;49.678;24.560;2023-02-28T03:48:25;99443.50;;;-2.48;69.99
45327;BME280;31062;49.678;24.560;2023-02-28T03:51:16;99493.53;;;-2.31;70.39
45327;BME280;31062;49.678;24.560;2023-02-28T03:54:09;99516.22;;;-2.43;70.62
45327;BME280;31062;49.678;24.560;2023-02-28T03:57:33;99495.34;;;-2.28;69.86
45327;BME280;31062;49.678;24.560;2023-02-28T04:00:29;99522.53;;;-2.28;69.22
45327;BME280;31062;49.678;24.560;2023-02-28T04:03:18;99273.53;;;-3.72;69.56
45327;BME280;31062;49.678;24.560;2023-02-28T04:06:06;99440.97;;;-2.61;69.66
45327;BME280;31062;49.678;24.560;2023-02-28T04:08:52;99282.09;;;-3.73;69.18
45327;BME280;31062;49.678;24.560;2023-02-28T04:11:40;99476.84;;;-2.48;69.17
45327;BME280;31062;49.678;24.560;2023-02-28T04:14:27;99281.66;;;-3.72;69.72
45327;BME280;31062;49.678;24.560;2023-02-28T04:17:12;99474.28;;;-2.42;69.03
45327;BME280;31062;49.678;24.560;2023-02-28T04:19:58;99454.38;;;-2.48;69.55
45327;BME280;31062;49.678;24.560;2023-02-28T04:22:43;99498.66;;;-2.24;69.34
45327;BME280;31062;49.678;24.560;2023-02-28T04:25:29;99487.84;;;-2.33;69.79
45327;BME280;31062;49.678;24.560;2023-02-28T04:28:14;99494.59;;;-2.28;69.11
45327;BME280;31062;49.678;24.560;2023-02-28T04:31:02;99308.44;;;-3.46;68.58
45327;BME280;31062;49.678;24.560;2023-02-28T04:33:48;99352.66;;;-3.22;69.20
45327;BME280;31062;49.678;24.560;2023-02-28T04:36:34;99456.81;;;-2.59;69.42
45327;BME280;31062;49.678;24.560;2023-02-28T04:39:23;99516.81;;;-2.39;69.67
45327;BME280;31062;49.678;24.560;2023-02-28T04:42:11;99272.94;;;-3.85;69.80
45327;BME280;31062;49.678;24.560;2023-02-28T04:44:57;99487.13;;;-2.52;70.96
45327;BME280;31062;49.678;24.560;2023-02-28T04:47:42;99476.16;;;-2.75;71.03
45327;BME280;31062;49.678;24.560;2023-02-28T04:50:28;99309.94;;;-3.91;71.78
45327;BME280;31062;49.678;24.560;2023-02-28T04:53:13;99272.78;;;-4.18;71.99
45327;BME280;31062;49.678;24.560;2023-02-28T04:55:59;99488.84;;;-2.81;72.07
45327;BME280;31062;49.678;24.560;2023-02-28T04:58:46;99502.13;;;-2.74;72.08
45327;BME280;31062;49.678;24.560;2023-02-28T05:01:33;99501.19;;;-2.71;71.68
45327;BME280;31062;49.678;24.560;2023-02-28T05:04:20;99486.56;;;-2.74;71.88
45327;BME280;31062;49.678;24.560;2023-02-28T05:07:05;99391.56;;;-3.34;72.95
45327;BME280;31062;49.678;24.560;2023-02-28T05:09:51;99502.34;;;-2.54;72.24
45327;BME280;31062;49.678;24.560;2023-02-28T05:12:36;99453.56;;;-2.91;72.09
45327;BME280;31062;49.678;24.560;2023-02-28T05:15:31;99519.56;;;-2.66;71.93
45327;BME280;31062;49.678;24.560;2023-02-28T05:18:19;99502.13;;;-2.74;72.09
45327;BME280;31062;49.678;24.560;2023-02-28T05:21:05;99335.56;;;-3.64;72.74
45327;BME280;31062;49.678;24.560;2023-02-28T05:23:51;99277.59;;;-4.03;72.25
45327;BME280;31062;49.678;24.560;2023-02-28T05:26:40;99327.72;;;-3.72;71.95
45327;BME280;31062;49.678;24.560;2023-02-28T05:29:26;99502.94;;;-2.50;72.38
45327;BME280;31062;49.678;24.560;2023-02-28T05:32:12;99297.00;;;-3.87;72.55
45327;BME280;31062;49.678;24.560;2023-02-28T05:34:59;99506.53;;;-2.35;72.36
45327;BME280;31062;49.678;24.560;2023-02-28T05:37:47;99492.38;;;-2.48;72.73
45327;BME280;31062;49.678;24.560;2023-02-28T05:40:33;99493.31;;;-2.51;72.47
45327;BME280;31062;49.678;24.560;2023-02-28T05:43:22;99513.47;;;-2.34;72.24
45327;BME280;31062;49.678;24.560;2023-02-28T05:46:10;99540.31;;;-2.27;72.17
45327;BME280;31062;49.678;24.560;2023-02-28T05:48:56;99527.94;;;-2.28;72.58
45327;BME280;31062;49.678;24.560;2023-02-28T05:51:45;99531.25;;;-2.24;72.90
45327;BME280;31062;49.678;24.560;2023-02-28T05:54:31;99341.72;;;-3.46;73.40
45327;BME280;31062;49.678;24.560;2023-02-28T05:57:18;99544.47;;;-2.08;72.42
45327;BME280;31062;49.678;24.560;2023-02-28T06:00:15;99539.91;;;-2.01;72.79
45327;BME280;31062;49.678;24.560;2023-02-28T06:03:12;99549.13;;;-1.99;72.13
45327;BME280;31062;49.678;24.560;2023-02-28T06:05:57;99512.25;;;-2.24;72.73
45327;BME280;31062;49.678;24.560;2023-02-28T06:08:43;99515.84;;;-2.18;72.46
45327;BME280;31062;49.678;24.560;2023-02-28T06:11:30;99348.75;;;-3.30;73.03
45327;BME280;31062;49.678;24.560;2023-02-28T06:14:18;99340.63;;;-3.39;73.13
45327;BME280;31062;49.678;24.560;2023-02-28T06:17:04;99558.00;;;-1.89;72.43
45327;BME280;31062;49.678;24.560;2023-02-28T06:19:50;99547.09;;;-2.22;71.97
45327;BME280;31062;49.678;24.560;2023-02-28T06:22:37;99564.38;;;-1.92;72.24
45327;BME280;31062;49.678;24.560;2023-02-28T06:25:23;99528.78;;;-2.13;72.21
45327;BME280;31062;49.678;24.560;2023-02-28T06:28:08;99545.72;;;-2.09;72.40
45327;BME280;31062;49.678;24.560;2023-02-28T06:30:54;99565.31;;;-2.14;72.57
45327;BME280;31062;49.678;24.560;2023-02-28T06:33:42;99345.75;;;-3.50;72.94
45327;BME280;31062;49.678;24.560;2023-02-28T06:36:28;99538.53;;;-2.39;72.98
45327;BME280;31062;49.678;24.560;2023-02-28T06:39:14;99597.66;;;-2.25;73.13
45327;BME280;31062;49.678;24.560;2023-02-28T06:42:00;99351.81;;;-3.64;73.72
45327;BME280;31062;49.678;24.560;2023-02-28T06:44:46;99569.28;;;-2.15;74.25
45327;BME280;31062;49.678;24.560;2023-02-28T06:47:34;99563.97;;;-2.09;73.66
45327;BME280;31062;49.678;24.560;2023-02-28T06:50:20;99559.56;;;-2.07;73.98
45327;BME280;31062;49.678;24.560;2023-02-28T06:53:07;99576.03;;;-2.10;73.93
45327;BME280;31062;49.678;24.560;2023-02-28T06:55:53;99374.94;;;-3.27;73.70
45327;BME280;31062;49.678;24.560;2023-02-28T06:58:41;99561.53;;;-1.98;73.69
45327;BME280;31062;49.678;24.560;2023-02-28T07:01:27;99509.34;;;-2.20;74.76
45327;BME280;31062;49.678;24.560;2023-02-28T07:04:18;99559.06;;;-1.96;73.96
45327;BME280;31062;49.678;24.560;2023-02-28T07:07:04;99526.31;;;-1.92;72.50
45327;BME280;31062;49.678;24.560;2023-02-28T07:09:49;99513.69;;;-2.04;73.26
45327;BME280;31062;49.678;24.560;2023-02-28T07:12:36;99562.44;;;-1.68;73.59
45327;BME280;31062;49.678;24.560;2023-02-28T07:15:26;99601.09;;;-1.64;73.94
45327;BME280;31062;49.678;24.560;2023-02-28T07:18:11;99499.41;;;-1.90;73.47
45327;BME280;31062;49.678;24.560;2023-02-28T07:20:57;99565.03;;;-1.41;72.85
45327;BME280;31062;49.678;24.560;2023-02-28T07:23:46;99553.34;;;-1.56;73.03
45327;BME280;31062;49.678;24.560;2023-02-28T07:26:32;99390.72;;;-2.47;71.99
45327;BME280;31062;49.678;24.560;2023-02-28T07:29:19;99573.19;;;-1.41;72.28
45327;BME280;31062;49.678;24.560;2023-02-28T07:32:05;99578.31;;;-1.43;71.75
45327;BME280;31062;49.678;24.560;2023-02-28T07:34:50;99533.94;;;-1.49;71.70
45327;BME280;31062;49.678;24.560;2023-02-28T07:37:36;99541.75;;;-1.42;71.98
45327;BME280;31062;49.678;24.560;2023-02-28T07:40:25;99426.16;;;-2.09;72.15
45327;BME280;31062;49.678;24.560;2023-02-28T07:43:11;99553.59;;;-1.06;71.78
45327;BME280;31062;49.678;24.560;2023-02-28T07:46:04;99557.50;;;-0.98;71.29
45327;BME280;31062;49.678;24.560;2023-02-28T07:48:52;99593.75;;;-0.92;71.04
45327;BME280;31062;49.678;24.560;2023-02-28T07:51:40;99559.56;;;-0.93;70.52
45327;BME280;31062;49.678;24.560;2023-02-28T07:54:26;99385.25;;;-2.14;70.03
45327;BME280;31062;49.678;24.560;2023-02-28T07:57:12;99562.56;;;-0.91;70.64
45327;BME280;31062;49.678;24.560;2023-02-28T07:59:58;99566.88;;;-0.99;70.14
45327;BME280;31062;49.678;24.560;2023-02-28T08:02:43;99349.25;;;-2.24;70.28
45327;BME280;31062;49.678;24.560;2023-02-28T08:05:38;99535.34;;;-0.91;70.36
45327;BME280;31062;49.678;24.560;2023-02-28T08:08:24;99569.22;;;-0.54;70.42
45327;BME280;31062;49.678;24.560;2023-02-28T08:11:09;99567.31;;;-0.62;70.79
45327;BME280;31062;49.678;24.560;2023-02-28T08:13:58;99370.28;;;-1.62;68.88
45327;BME280;31062;49.678;24.560;2023-02-28T08:16:43;99400.91;;;-1.38;69.03
45327;BME280;31062;49.678;24.560;2023-02-28T08:19:29;99579.38;;;-0.10;68.43
45327;BME280;31062;49.678;24.560;2023-02-28T08:22:16;99605.97;;;-0.05;67.99
45327;BME280;31062;49.678;24.560;2023-02-28T08:25:03;99555.97;;;-0.17;68.47
45327;BME280;31062;49.678;24.560;2023-02-28T08:27:51;99402.03;;;-1.00;68.56
45327;BME280;31062;49.678;24.560;2023-02-28T08:30:37;99355.50;;;-1.32;68.25
45327;BME280;31062;49.678;24.560;2023-02-28T08:33:24;99577.84;;;0.18;67.76
45327;BME280;31062;49.678;24.560;2023-02-28T08:36:13;99570.25;;;0.22;66.95
45327;BME280;31062;49.678;24.560;2023-02-28T08:39:03;99575.97;;;0.24;66.22
45327;BME280;31062;49.678;24.560;2023-02-28T08:41:48;99535.84;;;-0.05;66.03
45327;BME280;31062;49.678;24.560;2023-02-28T08:44:51;99565.47;;;0.17;66.61
45327;BME280;31062;49.678;24.560;2023-02-28T08:47:37;99572.81;;;0.11;66.68
45327;BME280;31062;49.678;24.560;2023-02-28T08:50:22;99371.44;;;-1.25;67.05
45327;BME280;31062;49.678;24.560;2023-02-28T08:53:08;99591.59;;;0.09;67.19
45327;BME280;31062;49.678;24.560;2023-02-28T08:55:56;99586.31;;;0.20;68.00
45327;BME280;31062;49.678;24.560;2023-02-28T08:58:43;99592.97;;;0.34;68.28
45327;BME280;31062;49.678;24.560;2023-02-28T09:01:29;99422.34;;;-0.72;67.30
45327;BME280;31062;49.678;24.560;2023-02-28T09:04:16;99600.03;;;0.40;67.67
45327;BME280;31062;49.678;24.560;2023-02-28T09:07:05;99561.66;;;0.29;67.34
45327;BME280;31062;49.678;24.560;2023-02-28T09:09:51;99609.22;;;0.43;66.32
45327;BME280;31062;49.678;24.560;2023-02-28T09:12:40;99406.72;;;-0.71;66.29
45327;BME280;31062;49.678;24.560;2023-02-28T09:15:26;99424.75;;;-0.45;65.80
45327;BME280;31062;49.678;24.560;2023-02-28T09:18:12;99614.28;;;0.65;66.41
45327;BME280;31062;49.678;24.560;2023-02-28T09:20:58;99579.28;;;0.49;65.55
45327;BME280;31062;49.678;24.560;2023-02-28T09:23:45;99439.28;;;-0.18;65.23
45327;BME280;31062;49.678;24.560;2023-02-28T09:26:31;99542.59;;;0.50;65.23
45327;BME280;31062;49.678;24.560;2023-02-28T09:29:27;99561.09;;;0.60;65.16
45327;BME280;31062;49.678;24.560;2023-02-28T09:32:14;99556.38;;;0.61;65.42
45327;BME280;31062;49.678;24.560;2023-02-28T09:34:59;99532.44;;;0.50;66.06
45327;BME280;31062;49.678;24.560;2023-02-28T09:37:45;99538.66;;;0.51;64.59
45327;BME280;31062;49.678;24.560;2023-02-28T09:40:31;99406.50;;;-0.38;65.17
45327;BME280;31062;49.678;24.560;2023-02-28T09:43:17;99542.00;;;0.60;65.10
45327;BME280;31062;49.678;24.560;2023-02-28T09:49:31;99468.50;;;0.16;64.56
45327;BME280;31062;49.678;24.560;2023-02-28T09:52:21;99546.44;;;0.78;64.82
45327;BME280;31062;49.678;24.560;2023-02-28T10:07:28;99565.81;;;1.20;64.12
45327;BME280;31062;49.678;24.560;2023-02-28T10:13:12;99375.91;;;0.07;64.42
45327;BME280;31062;49.678;24.560;2023-02-28T10:16:02;99524.09;;;1.20;64.66
45327;BME280;31062;49.678;24.560;2023-02-28T10:19:17;99551.16;;;1.44;64.30
45327;BME280;31062;49.678;24.560;2023-02-28T10:25:28;99576.56;;;1.50;63.79
45327;BME280;31062;49.678;24.560;2023-02-28T10:28:15;99526.72;;;1.35;63.52
45327;BME280;31062;49.678;24.560;2023-02-28T10:31:14;99536.16;;;1.34;63.73
45327;BME280;31062;49.678;24.560;2023-02-28T10:34:12;99539.81;;;1.51;63.22
45327;BME280;31062;49.678;24.560;2023-02-28T10:37:01;99511.03;;;1.30;62.80
45327;BME280;31062;49.678;24.560;2023-02-28T10:39:55;99502.28;;;1.26;62.87
45327;BME280;31062;49.678;24.560;2023-02-28T10:42:42;99529.41;;;1.55;62.53
45327;BME280;31062;49.678;24.560;2023-02-28T10:45:32;99562.56;;;1.68;63.40
45327;BME280;31062;49.678;24.560;2023-02-28T10:51:11;99343.38;;;0.44;60.82
45327;BME280;31062;49.678;24.560;2023-02-28T10:53:58;99542.91;;;1.64;59.86
45327;BME280;31062;49.678;24.560;2023-02-28T11:00:15;99486.66;;;1.52;59.73
45327;BME280;31062;49.678;24.560;2023-02-28T11:03:44;99525.66;;;1.78;60.07
45327;BME280;31062;49.678;24.560;2023-02-28T11:06:44;99513.13;;;1.66;60.10
45327;BME280;31062;49.678;24.560;2023-02-28T11:09:38;99532.16;;;1.86;60.75
45327;BME280;31062;49.678;24.560;2023-02-28T11:12:36;99549.84;;;1.91;61.17
45327;BME280;31062;49.678;24.560;2023-02-28T11:15:36;99520.28;;;1.89;60.86
45327;BME280;31062;49.678;24.560;2023-02-28T11:18:27;99530.56;;;1.74;60.98
45327;BME280;31062;49.678;24.560;2023-02-28T11:21:16;99515.31;;;1.93;60.31
45327;BME280;31062;49.678;24.560;2023-02-28T11:30:26;99547.97;;;2.02;61.35
45327;BME280;31062;49.678;24.560;2023-02-28T11:33:47;99516.63;;;2.03;60.13
45327;BME280;31062;49.678;24.560;2023-02-28T11:36:35;99512.41;;;2.02;60.94
45327;BME280;31062;49.678;24.560;2023-02-28T11:39:24;99365.00;;;0.99;61.28
45327;BME280;31062;49.678;24.560;2023-02-28T11:48:06;99471.94;;;1.75;61.63
45327;BME280;31062;49.678;24.560;2023-02-28T11:51:13;99522.81;;;1.98;61.06
45327;BME280;31062;49.678;24.560;2023-02-28T11:56:48;99499.97;;;2.01;62.58
45327;BME280;31062;49.678;24.560;2023-02-28T12:03:07;99494.50;;;2.01;62.08
45327;BME280;31062;49.678;24.560;2023-02-28T12:06:28;99492.31;;;2.11;61.57
45327;BME280;31062;49.678;24.560;2023-02-28T12:24:28;99482.38;;;2.56;61.86
45327;BME280;31062;49.678;24.560;2023-02-28T12:27:19;99505.78;;;2.63;61.67
45327;BME280;31062;49.678;24.560;2023-02-28T12:30:17;99490.84;;;2.58;58.62
45327;BME280;31062;49.678;24.560;2023-02-28T12:33:12;99458.72;;;2.53;59.61
45327;BME280;31062;49.678;24.560;2023-02-28T12:36:02;99472.41;;;2.53;59.71
45327;BME280;31062;49.678;24.560;2023-02-28T12:41:59;99470.91;;;2.52;59.77
45327;BME280;31062;49.678;24.560;2023-02-28T12:44:59;99432.00;;;2.31;60.56
45327;BME280;31062;49.678;24.560;2023-02-28T12:47:50;99476.63;;;2.49;61.21
45327;BME280;31062;49.678;24.560;2023-02-28T12:50:37;99303.28;;;1.50;60.77
45327;BME280;31062;49.678;24.560;2023-02-28T13:00:23;99453.53;;;2.66;60.98
45327;BME280;31062;49.678;24.560;2023-02-28T13:04:19;99468.97;;;2.69;60.54
45327;BME280;31062;49.678;24.560;2023-02-28T13:09:54;99241.19;;;1.56;59.93
45327;BME280;31062;49.678;24.560;2023-02-28T13:12:48;99305.47;;;1.88;58.32
45327;BME280;31062;49.678;24.560;2023-02-28T13:15:38;99237.63;;;1.39;57.64
45327;BME280;31062;49.678;24.560;2023-02-28T13:18:37;99432.09;;;2.59;58.24
45327;BME280;31062;49.678;24.560;2023-02-28T13:21:27;99378.69;;;2.16;58.50
45327;BME280;31062;49.678;24.560;2023-02-28T13:27:39;99398.16;;;2.29;60.11
45327;BME280;31062;49.678;24.560;2023-02-28T13:36:32;99382.81;;;2.48;60.09
45327;BME280;31062;49.678;24.560;2023-02-28T13:42:30;99421.22;;;2.81;59.27
45327;BME280;31062;49.678;24.560;2023-02-28T13:45:31;99253.69;;;1.68;58.79
45327;BME280;31062;49.678;24.560;2023-02-28T13:48:26;99375.31;;;2.43;58.36
45327;BME280;31062;49.678;24.560;2023-02-28T14:04:12;99416.97;;;2.80;59.50
45327;BME280;31062;49.678;24.560;2023-02-28T14:07:01;99215.81;;;1.50;58.79
45327;BME280;31062;49.678;24.560;2023-02-28T14:09:57;99232.28;;;1.61;58.77
45327;BME280;31062;49.678;24.560;2023-02-28T14:12:59;99399.25;;;2.59;58.53
45327;BME280;31062;49.678;24.560;2023-02-28T14:16:00;99402.78;;;2.76;59.02
45327;BME280;31062;49.678;24.560;2023-02-28T14:18:59;99213.81;;;1.45;58.50
45327;BME280;31062;49.678;24.560;2023-02-28T14:31:00;99407.44;;;2.48;58.10
45327;BME280;31062;49.678;24.560;2023-02-28T14:36:53;99209.16;;;1.08;58.43
45327;BME280;31062;49.678;24.560;2023-02-28T14:39:41;99392.22;;;2.36;58.35
45327;BME280;31062;49.678;24.560;2023-02-28T14:45:20;99394.69;;;2.34;59.28
45327;BME280;31062;49.678;24.560;2023-02-28T14:48:09;99404.63;;;2.26;59.50
45327;BME280;31062;49.678;24.560;2023-02-28T14:50:59;99208.69;;;1.15;61.36
45327;BME280;31062;49.678;24.560;2023-02-28T14:53:49;99398.75;;;2.55;60.96
45327;BME280;31062;49.678;24.560;2023-02-28T14:56:39;99422.16;;;2.56;60.35
45327;BME280;31062;49.678;24.560;2023-02-28T14:59:33;99409.16;;;2.51;59.62
45327;BME280;31062;49.678;24.560;2023-02-28T15:02:22;99420.66;;;2.61;59.42
45327;BME280;31062;49.678;24.560;2023-02-28T15:08:12;99431.63;;;2.66;60.53
45327;BME280;31062;49.678;24.560;2023-02-28T15:11:02;99387.81;;;2.55;60.08
45327;BME280;31062;49.678;24.560;2023-02-28T15:13:51;99411.72;;;2.71;60.15
45327;BME280;31062;49.678;24.560;2023-02-28T15:16:39;99400.28;;;2.67;60.21
45327;BME280;31062;49.678;24.560;2023-02-28T15:19:31;99402.28;;;2.72;60.34
45327;BME280;31062;49.678;24.560;2023-02-28T15:22:23;99429.88;;;2.69;60.18
45327;BME280;31062;49.678;24.560;2023-02-28T15:25:17;99210.84;;;1.43;59.84
45327;BME280;31062;49.678;24.560;2023-02-28T15:28:04;99371.03;;;2.31;59.69
45327;BME280;31062;49.678;24.560;2023-02-28T15:30:57;99392.28;;;2.58;59.71
45327;BME280;31062;49.678;24.560;2023-02-28T15:33:53;99207.81;;;1.30;59.92
45327;BME280;31062;49.678;24.560;2023-02-28T15:36:39;99396.25;;;2.57;59.95
45327;BME280;31062;49.678;24.560;2023-02-28T15:39:28;99420.41;;;2.59;60.05
45327;BME280;31062;49.678;24.560;2023-02-28T15:42:19;99387.81;;;2.55;59.85
45327;BME280;31062;49.678;24.560;2023-02-28T15:45:06;99403.22;;;2.58;59.87
45327;BME280;31062;49.678;24.560;2023-02-28T15:51:39;99395.78;;;2.64;59.42
45327;BME280;31062;49.678;24.560;2023-02-28T15:54:32;99364.88;;;2.47;59.32
45327;BME280;31062;49.678;24.560;2023-02-28T15:57:26;99378.09;;;2.54;59.08
45327;BME280;31062;49.678;24.560;2023-02-28T16:00:16;99425.91;;;2.70;59.45
45327;BME280;31062;49.678;24.560;2023-02-28T16:03:26;99204.84;;;1.39;59.44
45327;BME280;31062;49.678;24.560;2023-02-28T16:06:24;99407.75;;;2.72;59.28
45327;BME280;31062;49.678;24.560;2023-02-28T16:09:19;99344.19;;;2.35;59.36
45327;BME280;31062;49.678;24.560;2023-02-28T16:12:05;99335.94;;;2.24;59.18
45327;BME280;31062;49.678;24.560;2023-02-28T16:14:52;99369.31;;;2.39;59.03
45327;BME280;31062;49.678;24.560;2023-02-28T16:17:39;99328.91;;;2.00;59.66
45327;BME280;31062;49.678;24.560;2023-02-28T16:20:28;99396.75;;;2.50;60.42
45327;BME280;31062;49.678;24.560;2023-02-28T16:23:14;99431.06;;;2.51;60.88
45327;BME280;31062;49.678;24.560;2023-02-28T16:26:04;99397.72;;;2.47;61.01
45327;BME280;31062;49.678;24.560;2023-02-28T16:28:52;99411.13;;;2.45;61.45
45327;BME280;31062;49.678;24.560;2023-02-28T16:31:39;99212.47;;;1.18;61.62
45327;BME280;31062;49.678;24.560;2023-02-28T16:34:24;99416.38;;;2.43;61.97
45327;BME280;31062;49.678;24.560;2023-02-28T16:37:13;99253.56;;;1.46;61.71
45327;BME280;31062;49.678;24.560;2023-02-28T16:39:59;99411.41;;;2.47;61.91
45327;BME280;31062;49.678;24.560;2023-02-28T16:42:45;99252.78;;;1.40;62.22
45327;BME280;31062;49.678;24.560;2023-02-28T16:45:32;99416.63;;;2.45;61.76
45327;BME280;31062;49.678;24.560;2023-02-28T16:48:19;99417.59;;;2.42;61.59
45327;BME280;31062;49.678;24.560;2023-02-28T16:51:05;99387.16;;;2.18;61.80
45327;BME280;31062;49.678;24.560;2023-02-28T16:53:51;99221.06;;;1.05;62.37
45327;BME280;31062;49.678;24.560;2023-02-28T16:56:40;99415.06;;;2.33;62.78
45327;BME280;31062;49.678;24.560;2023-02-28T16:59:28;99411.34;;;2.30;63.01
45327;BME280;31062;49.678;24.560;2023-02-28T17:02:15;99284.13;;;1.44;62.75
45327;BME280;31062;49.678;24.560;2023-02-28T17:05:05;99349.22;;;1.88;62.86
45327;BME280;31062;49.678;24.560;2023-02-28T17:07:51;99408.31;;;2.23;63.17
45327;BME280;31062;49.678;24.560;2023-02-28T17:10:37;99411.28;;;2.19;62.21
45327;BME280;31062;49.678;24.560;2023-02-28T17:13:22;99335.31;;;1.49;62.15
45327;BME280;31062;49.678;24.560;2023-02-28T17:19:13;99433.72;;;1.86;63.19
45327;BME280;31062;49.678;24.560;2023-02-28T17:21:59;99418.75;;;1.76;63.71
45327;BME280;31062;49.678;24.560;2023-02-28T17:24:46;99413.22;;;1.65;63.66
45327;BME280;31062;49.678;24.560;2023-02-28T17:27:32;99252.38;;;0.78;63.45
45327;BME280;31062;49.678;24.560;2023-02-28T17:30:28;99397.19;;;1.84;63.44